Time;durP1;ratioP1;P1;durP2;ratioP2;P2;SDS_P1;SDS_P2;PMS_P1;PMS_P2;Temp;Humidity;BMP_temperature;BMP_pressure;BME280_temperature;BME280_humidity;BME280_pressure;Samples;Min_cycle;Max_cycle;Signal;HPM_P1;HPM_P2
2021/12/21 00:00:30;;;;;;;29.33;12.23;;;;;;;-1.07;87.98;102724.06;5030429;28;20083;-61
2021/12/21 00:02:56;;;;;;;27.13;12.30;;;;;;;-1.05;87.93;102727.50;5032145;28;20045;-62
2021/12/21 00:05:27;;;;;;;30.77;12.57;;;;;;;-1.09;87.57;102725.84;5031401;28;20086;-62
2021/12/21 00:07:55;;;;;;;32.10;13.03;;;;;;;-1.13;87.80;102719.03;5031024;28;20143;-62
2021/12/21 00:10:24;;;;;;;31.97;12.23;;;;;;;-1.17;87.63;102712.16;5031668;28;20041;-62
2021/12/21 00:15:33;;;;;;;30.90;12.47;;;;;;;-1.18;87.88;102720.88;5029598;28;20041;-63
2021/12/21 00:23:38;;;;;;;26.67;11.50;;;;;;;-1.20;87.66;102720.06;5032527;28;20118;-62
2021/12/21 00:26:07;;;;;;;26.50;12.00;;;;;;;-1.26;87.84;102718.47;5032324;28;20025;-62
2021/12/21 00:28:39;;;;;;;32.10;12.10;;;;;;;-1.26;87.81;102714.13;5032133;28;20033;-62
2021/12/21 00:31:04;;;;;;;28.10;11.70;;;;;;;-1.27;87.89;102709.81;5030352;28;20069;-62
2021/12/21 00:33:30;;;;;;;26.17;11.17;;;;;;;-1.28;87.95;102713.28;5032488;28;20417;-62
2021/12/21 00:35:55;;;;;;;29.07;12.30;;;;;;;-1.32;87.47;102711.66;5032310;28;20521;-62
2021/12/21 00:38:21;;;;;;;26.83;12.03;;;;;;;-1.33;87.46;102707.38;5031346;28;20026;-62
2021/12/21 00:40:46;;;;;;;27.03;11.67;;;;;;;-1.31;87.62;102712.50;5032289;28;20359;-62
2021/12/21 00:43:11;;;;;;;30.53;11.97;;;;;;;-1.42;86.60;102703.22;5032172;28;20479;-62
2021/12/21 00:45:37;;;;;;;28.83;12.13;;;;;;;-1.40;87.07;102695.38;5032360;28;20069;-62
2021/12/21 00:48:02;;;;;;;29.03;11.63;;;;;;;-1.41;87.08;102704.06;5031588;28;20096;-62
2021/12/21 00:50:29;;;;;;;25.10;11.90;;;;;;;-1.54;87.31;102700.91;5031805;28;20034;-62
2021/12/21 00:52:54;;;;;;;28.93;12.10;;;;;;;-1.59;87.49;102695.81;5031468;28;20022;-62
2021/12/21 00:55:21;;;;;;;28.40;12.80;;;;;;;-1.63;87.69;102695.03;5031905;28;20056;-62
2021/12/21 00:57:47;;;;;;;27.07;11.53;;;;;;;-1.67;88.26;102703.78;5032371;28;20032;-60
2021/12/21 01:00:16;;;;;;;27.20;12.63;;;;;;;-1.74;88.48;102685.78;5030538;28;20033;-60
2021/12/21 01:02:42;;;;;;;26.30;10.83;;;;;;;-1.70;88.31;102698.66;5030297;28;20036;-60
2021/12/21 01:05:17;;;;;;;25.30;11.80;;;;;;;-1.67;88.27;102695.16;5031553;28;20025;-60
2021/12/21 01:07:46;;;;;;;28.60;11.33;;;;;;;-1.65;88.04;102690.75;5031865;28;20120;-60
2021/12/21 01:12:49;;;;;;;26.43;12.03;;;;;;;-1.72;88.07;102697.00;5031507;28;20486;-60
2021/12/21 01:18:21;;;;;;;25.70;10.63;;;;;;;-1.69;87.66;102699.50;5005325;28;20037;-60
2021/12/21 01:20:54;;;;;;;26.33;10.53;;;;;;;-1.73;88.13;102692.69;5031032;28;20025;-60
2021/12/21 01:23:39;;;;;;;27.05;10.25;;;;;;;-1.73;87.80;102703.09;5030536;28;20037;-60
2021/12/21 01:26:19;;;;;;;23.00;10.67;;;;;;;-1.71;87.92;102701.28;5026872;28;20029;-60
2021/12/21 01:29:05;;;;;;;24.87;10.53;;;;;;;-1.71;87.88;102698.69;5029784;28;20020;-61
2021/12/21 01:31:50;;;;;;;24.47;10.67;;;;;;;-1.73;87.85;102698.72;5030305;28;21742;-60
2021/12/21 01:37:07;;;;;;;24.67;10.40;;;;;;;-1.80;87.32;102690.22;5029904;28;20412;-60
2021/12/21 01:39:55;;;;;;;21.23;10.00;;;;;;;-1.84;87.50;102696.38;5030137;28;20029;-61
2021/12/21 01:42:36;;;;;;;24.23;10.33;;;;;;;-1.84;87.86;102679.91;5031011;28;20064;-60
2021/12/21 01:50:31;;;;;;;23.17;9.80;;;;;;;-1.90;87.64;102681.78;5030848;28;20076;-60
2021/12/21 01:52:56;;;;;;;25.23;10.40;;;;;;;-1.89;87.60;102682.63;5029639;28;20053;-60
2021/12/21 01:55:21;;;;;;;26.70;9.90;;;;;;;-1.94;87.08;102679.25;5030592;28;20034;-60
2021/12/21 01:57:47;;;;;;;24.20;10.43;;;;;;;-1.90;87.65;102679.19;5030272;28;20112;-60
2021/12/21 02:00:13;;;;;;;26.13;10.37;;;;;;;-1.92;87.84;102673.13;5030069;28;20406;-60
2021/12/21 02:02:38;;;;;;;21.57;9.53;;;;;;;-1.94;87.62;102676.66;5030456;28;20029;-60
2021/12/21 02:05:04;;;;;;;25.50;10.40;;;;;;;-1.95;87.50;102680.16;5030498;28;20045;-60
2021/12/21 02:07:29;;;;;;;23.47;10.30;;;;;;;-2.03;87.52;102669.91;5030652;28;20116;-60
2021/12/21 02:09:55;;;;;;;26.17;10.30;;;;;;;-2.04;87.41;102669.06;5030044;28;20104;-60
2021/12/21 02:12:21;;;;;;;26.57;10.50;;;;;;;-2.07;88.05;102661.34;5030533;28;20065;-60
2021/12/21 02:14:54;;;;;;;27.90;10.77;;;;;;;-2.07;87.73;102663.09;5030715;28;20041;-60
2021/12/21 02:20:23;;;;;;;26.23;10.50;;;;;;;-2.10;87.59;102653.63;5030791;28;20045;-60
2021/12/21 02:22:57;;;;;;;26.33;10.70;;;;;;;-2.12;87.53;102659.72;5031583;28;20045;-60
2021/12/21 02:28:34;;;;;;;25.77;11.03;;;;;;;-2.08;88.06;102662.22;5030456;28;20494;-60
2021/12/21 02:30:44;;;;;;;29.27;10.47;;;;;;;-2.11;87.70;102662.31;5026691;28;20045;-60
2021/12/21 02:33:11;;;;;;;25.80;10.77;;;;;;;-2.18;87.78;102664.19;5029954;28;20156;-60
2021/12/21 02:35:36;;;;;;;27.73;11.30;;;;;;;-2.18;88.13;102658.09;5029658;28;20038;-60
2021/12/21 02:38:02;;;;;;;25.03;10.87;;;;;;;-2.21;87.84;102668.59;5029594;28;20029;-60
2021/12/21 02:40:27;;;;;;;27.90;10.77;;;;;;;-2.21;87.64;102666.81;5031469;28;20421;-60
2021/12/21 02:42:52;;;;;;;27.43;10.57;;;;;;;-2.21;87.73;102658.19;5029865;28;20028;-60
2021/12/21 02:45:18;;;;;;;28.53;10.93;;;;;;;-2.27;88.02;102650.53;5030782;28;20037;-60
2021/12/21 02:47:43;;;;;;;25.43;10.77;;;;;;;-2.25;88.09;102653.94;5029818;28;20026;-60
2021/12/21 02:50:09;;;;;;;25.67;10.30;;;;;;;-2.26;88.11;102657.44;5030730;28;20061;-60
2021/12/21 02:52:34;;;;;;;26.90;10.73;;;;;;;-2.23;88.03;102654.78;5028703;28;20108;-60
2021/12/21 02:55:00;;;;;;;27.20;10.20;;;;;;;-2.24;88.10;102650.44;5033833;28;20541;-60
2021/12/21 02:57:26;;;;;;;25.50;10.27;;;;;;;-2.25;87.93;102654.81;5032905;28;20061;-60
2021/12/21 02:59:51;;;;;;;26.17;10.50;;;;;;;-2.24;87.67;102651.31;5033863;28;20481;-60
2021/12/21 03:02:17;;;;;;;26.97;11.27;;;;;;;-2.26;87.46;102647.03;5031291;28;20041;-60
2021/12/21 03:04:43;;;;;;;25.30;10.37;;;;;;;-2.27;87.75;102647.94;5032432;28;20092;-60
2021/12/21 03:07:36;;;;;;;26.33;10.97;;;;;;;-2.31;87.25;102645.38;5030273;28;20049;-60
2021/12/21 03:09:56;;;;;;;26.97;11.13;;;;;;;-2.34;87.52;102645.47;5032202;28;20487;-60
2021/12/21 03:14:47;;;;;;;31.33;11.40;;;;;;;-2.34;87.72;102650.66;5034222;28;20049;-60
2021/12/21 03:17:12;;;;;;;27.30;11.30;;;;;;;-2.35;87.71;102654.16;5032014;28;20025;-60
2021/12/21 03:19:39;;;;;;;27.80;11.27;;;;;;;-2.34;87.96;102655.84;5032943;28;20418;-60
2021/12/21 03:22:05;;;;;;;28.13;11.33;;;;;;;-2.36;87.76;102647.22;5031443;28;20037;-60
2021/12/21 03:24:31;;;;;;;26.93;11.13;;;;;;;-2.35;87.90;102638.56;5032770;28;20038;-60
2021/12/21 03:26:56;;;;;;;25.57;10.93;;;;;;;-2.37;87.80;102642.91;5027534;28;20031;-60
2021/12/21 03:29:21;;;;;;;22.97;10.53;;;;;;;-2.40;87.61;102640.38;5033120;28;20037;-60
2021/12/21 03:31:47;;;;;;;29.07;11.13;;;;;;;-2.43;87.98;102645.63;5031002;28;20529;-60
2021/12/21 03:34:12;;;;;;;29.67;11.60;;;;;;;-2.46;88.32;102645.72;5033278;28;20037;-60
2021/12/21 03:36:38;;;;;;;27.13;11.40;;;;;;;-2.45;87.93;102642.22;5031230;28;20072;-60
2021/12/21 03:39:07;;;;;;;32.40;11.70;;;;;;;-2.45;87.94;102642.22;5028595;28;20030;-60
2021/12/21 03:41:35;;;;;;;25.73;11.63;;;;;;;-2.48;88.27;102639.69;5030544;28;20521;-60
2021/12/21 03:44:02;;;;;;;26.37;11.93;;;;;;;-2.51;88.14;102631.97;5033356;28;20026;-60
2021/12/21 03:46:31;;;;;;;29.20;11.93;;;;;;;-2.54;88.41;102632.88;5032610;28;20021;-60
2021/12/21 03:48:56;;;;;;;28.83;11.83;;;;;;;-2.52;88.17;102635.44;5032396;28;20034;-60
2021/12/21 03:51:21;;;;;;;30.87;12.10;;;;;;;-2.58;87.97;102632.09;5032731;28;20034;-60
2021/12/21 03:53:48;;;;;;;27.97;11.20;;;;;;;-2.59;88.40;102635.56;5043832;28;20030;-60
2021/12/21 03:56:30;;;;;;;26.67;11.70;;;;;;;-2.62;88.31;102640.81;5033134;28;20044;-60
2021/12/21 03:58:56;;;;;;;26.10;11.63;;;;;;;-2.65;88.25;102640.91;5032984;28;20021;-60
2021/12/21 04:01:21;;;;;;;32.50;12.00;;;;;;;-2.63;88.25;102636.50;5031151;28;20045;-60
2021/12/21 04:03:47;;;;;;;29.80;12.63;;;;;;;-2.64;88.35;102637.41;5032070;28;20037;-60
2021/12/21 04:06:12;;;;;;;30.23;11.60;;;;;;;-2.62;88.42;102630.44;5031613;28;20057;-60
2021/12/21 04:08:37;;;;;;;26.67;11.80;;;;;;;-2.64;88.69;102632.22;5030311;28;20430;-60
2021/12/21 04:11:03;;;;;;;26.97;11.50;;;;;;;-2.67;88.31;102632.25;5032378;28;20103;-60
2021/12/21 04:13:30;;;;;;;26.23;12.10;;;;;;;-2.65;89.07;102634.84;5032712;28;20030;-60
2021/12/21 04:15:58;;;;;;;29.67;12.27;;;;;;;-2.75;88.27;102635.03;5033164;28;20109;-60
2021/12/21 04:18:24;;;;;;;31.57;12.17;;;;;;;-2.72;88.38;102631.50;5029150;28;20091;-60
2021/12/21 04:20:50;;;;;;;28.40;11.97;;;;;;;-2.70;88.39;102632.34;5030857;28;20498;-60
2021/12/21 04:23:16;;;;;;;30.07;11.83;;;;;;;-2.74;88.33;102625.47;5032466;28;20057;-60
2021/12/21 04:25:42;;;;;;;33.47;12.73;;;;;;;-2.75;88.87;102631.56;5032100;28;20540;-60
2021/12/21 04:28:07;;;;;;;29.63;12.53;;;;;;;-2.79;88.33;102627.31;5032046;28;20025;-60
2021/12/21 04:30:32;;;;;;;29.60;11.20;;;;;;;-2.81;88.09;102624.75;5031326;28;20433;-60
2021/12/21 04:32:57;;;;;;;30.13;12.27;;;;;;;-2.79;88.21;102632.50;5030995;28;20025;-60
2021/12/21 04:35:23;;;;;;;27.63;11.87;;;;;;;-2.79;88.34;102635.09;5028414;28;20779;-60
2021/12/21 04:37:57;;;;;;;28.50;12.33;;;;;;;-2.84;88.35;102630.88;5028145;28;20242;-60
2021/12/21 04:40:36;;;;;;;28.47;12.63;;;;;;;-2.89;88.00;102626.63;5031358;28;20132;-60
2021/12/21 04:43:02;;;;;;;31.17;12.23;;;;;;;-2.86;88.52;102622.22;5029429;28;20080;-60
2021/12/21 04:45:28;;;;;;;31.23;12.73;;;;;;;-2.84;87.96;102620.47;5030023;28;20430;-60
2021/12/21 04:47:53;;;;;;;29.73;12.57;;;;;;;-2.84;87.75;102617.88;5030166;28;20125;-60
2021/12/21 04:50:18;;;;;;;30.40;12.37;;;;;;;-2.85;88.19;102613.56;5029378;28;20409;-60
2021/12/21 04:52:43;;;;;;;27.93;11.97;;;;;;;-2.87;88.25;102620.53;5030315;28;20025;-60
2021/12/21 04:55:09;;;;;;;28.83;12.87;;;;;;;-2.86;88.65;102631.78;5028059;28;20053;-60
2021/12/21 04:57:34;;;;;;;27.23;12.20;;;;;;;-2.87;88.73;102622.25;5029211;28;20068;-60
2021/12/21 05:00:00;;;;;;;32.50;13.63;;;;;;;-2.89;88.45;102618.84;5029004;28;20087;-60
2021/12/21 05:02:25;;;;;;;31.57;12.97;;;;;;;-2.88;88.61;102613.63;5025222;28;20026;-60
2021/12/21 05:04:50;;;;;;;35.63;13.57;;;;;;;-2.91;88.40;102618.88;5027634;28;20026;-60
2021/12/21 05:07:22;;;;;;;34.50;13.67;;;;;;;-2.91;88.32;102618.88;5029150;28;20096;-60
2021/12/21 05:09:55;;;;;;;31.93;13.83;;;;;;;-2.95;88.49;102627.63;5030649;28;20029;-60
2021/12/21 05:12:21;;;;;;;34.53;14.20;;;;;;;-2.95;88.29;102614.66;5030296;28;20034;-60
2021/12/21 05:14:46;;;;;;;31.47;13.23;;;;;;;-2.95;88.24;102627.63;5031169;28;20017;-60
2021/12/21 05:17:12;;;;;;;32.70;14.03;;;;;;;-2.96;88.40;102628.50;5030909;28;20461;-60
2021/12/21 05:19:37;;;;;;;35.17;13.73;;;;;;;-2.96;88.39;102618.13;5028992;28;20029;-60
2021/12/21 05:22:02;;;;;;;31.57;13.77;;;;;;;-2.95;88.21;102622.44;5029390;28;20109;-60
2021/12/21 05:24:28;;;;;;;31.80;14.00;;;;;;;-2.99;88.43;102621.63;5028796;28;20081;-60
2021/12/21 05:26:53;;;;;;;32.33;13.27;;;;;;;-3.02;88.21;102619.09;5028351;28;20068;-60
2021/12/21 05:29:20;;;;;;;29.60;13.30;;;;;;;-3.02;88.54;102624.28;5029122;28;20029;-59
2021/12/21 05:31:45;;;;;;;34.37;13.67;;;;;;;-3.03;88.49;102629.50;5027861;28;20029;-60
2021/12/21 05:34:11;;;;;;;30.80;13.13;;;;;;;-3.02;88.53;102631.19;5023108;28;20068;-60
2021/12/21 05:36:36;;;;;;;32.27;14.27;;;;;;;-3.06;88.47;102616.59;5021862;28;20041;-60
2021/12/21 05:39:05;;;;;;;32.50;14.07;;;;;;;-3.14;88.48;102622.78;5026482;28;20026;-60
2021/12/21 05:41:47;;;;;;;30.13;13.10;;;;;;;-3.12;88.11;102621.00;5021431;28;20032;-59
2021/12/21 05:44:14;;;;;;;30.23;13.27;;;;;;;-3.13;88.58;102619.28;5020530;28;20084;-60
2021/12/21 05:46:39;;;;;;;32.83;14.00;;;;;;;-3.12;88.18;102625.31;5024702;28;20608;-60
2021/12/21 05:49:05;;;;;;;32.60;14.57;;;;;;;-3.15;88.53;102631.41;5023694;28;20045;-60
2021/12/21 05:51:30;;;;;;;31.10;13.40;;;;;;;-3.16;88.43;102634.91;5021097;28;20053;-60
2021/12/21 05:53:55;;;;;;;32.50;13.87;;;;;;;-3.18;88.40;102636.69;5020920;28;20049;-60
2021/12/21 05:56:20;;;;;;;34.70;14.23;;;;;;;-3.18;88.71;102638.41;5024300;28;20037;-59
2021/12/21 05:58:46;;;;;;;28.83;13.97;;;;;;;-3.19;89.15;102632.38;5022473;28;20030;-60
2021/12/21 06:01:12;;;;;;;31.67;13.17;;;;;;;-3.19;89.02;102627.19;5023703;28;20406;-58
2021/12/21 06:03:38;;;;;;;31.43;12.90;;;;;;;-3.20;89.06;102630.66;5028920;28;20041;-60
2021/12/21 06:06:03;;;;;;;34.37;14.47;;;;;;;-3.24;88.98;102626.41;5029096;28;20063;-60
2021/12/21 06:08:28;;;;;;;30.87;13.73;;;;;;;-3.26;89.06;102623.00;5027291;28;20136;-57
2021/12/21 06:10:55;;;;;;;34.10;14.23;;;;;;;-3.24;89.11;102623.81;5028203;28;20461;-60
2021/12/21 06:26:31;;;;;;;29.33;13.30;;;;;;;-3.27;89.00;102629.03;5029501;28;20056;-60
2021/12/21 06:28:57;;;;;;;29.57;13.90;;;;;;;-3.31;88.95;102630.00;5031057;28;20029;-60
2021/12/21 06:31:23;;;;;;;33.20;13.83;;;;;;;-3.31;89.09;102627.41;5034154;28;20022;-57
2021/12/21 06:33:50;;;;;;;31.70;13.87;;;;;;;-3.30;89.09;102622.16;5028007;28;20087;-57
2021/12/21 06:36:15;;;;;;;34.33;13.90;;;;;;;-3.30;89.36;102616.13;5032398;28;20026;-57
2021/12/21 06:38:41;;;;;;;28.97;13.70;;;;;;;-3.31;89.01;102622.22;5020997;28;20028;-58
2021/12/21 06:41:06;;;;;;;33.87;14.00;;;;;;;-3.32;89.43;102628.28;5041260;28;20025;-59
2021/12/21 06:43:33;;;;;;;38.27;14.53;;;;;;;-3.29;89.73;102620.44;5034056;28;20032;-61
2021/12/21 06:46:07;;;;;;;34.87;14.80;;;;;;;-3.30;89.39;102624.75;5037607;28;20025;-58
2021/12/21 06:51:34;;;;;;;35.67;14.00;;;;;;;-3.36;89.61;102626.63;5032618;28;20099;-58
2021/12/21 06:54:00;;;;;;;30.90;14.07;;;;;;;-3.38;89.53;102624.91;5033349;28;20044;-59
2021/12/21 06:56:27;;;;;;;32.47;14.70;;;;;;;-3.37;89.44;102625.75;5033211;28;20488;-57
2021/12/21 06:58:55;;;;;;;35.60;14.43;;;;;;;-3.39;89.40;102633.56;5032154;28;20033;-58
2021/12/21 07:01:20;;;;;;;32.37;14.33;;;;;;;-3.40;89.48;102629.25;5028747;28;20041;-59
2021/12/21 07:03:46;;;;;;;33.33;15.13;;;;;;;-3.40;89.59;102626.66;5033124;28;20044;-59
2021/12/21 07:06:12;;;;;;;33.77;14.50;;;;;;;-3.42;89.61;102633.63;5031851;28;20025;-57
2021/12/21 07:11:31;;;;;;;33.83;15.53;;;;;;;-3.40;89.50;102631.84;5034931;28;20055;-59
2021/12/21 07:19:26;;;;;;;38.13;15.03;;;;;;;-3.45;89.36;102633.66;5031170;28;20167;-59
2021/12/21 07:21:51;;;;;;;37.53;15.80;;;;;;;-3.48;89.50;102644.09;5033356;28;20030;-59
2021/12/21 07:24:16;;;;;;;35.77;14.90;;;;;;;-3.50;89.46;102645.88;5032109;28;20665;-58
2021/12/21 07:26:42;;;;;;;34.87;14.80;;;;;;;-3.47;89.28;102651.00;5035465;28;20029;-58
2021/12/21 07:29:07;;;;;;;33.43;14.43;;;;;;;-3.50;89.24;102645.88;5032776;28;20030;-59
2021/12/21 07:31:32;;;;;;;32.23;15.07;;;;;;;-3.52;89.43;102642.44;5031197;28;20049;-59
2021/12/21 07:34:00;;;;;;;32.83;15.37;;;;;;;-3.54;89.33;102649.41;5032701;28;20521;-59
2021/12/21 07:36:29;;;;;;;33.10;15.47;;;;;;;-3.53;89.70;102651.09;5031787;28;20092;-57
2021/12/21 07:38:55;;;;;;;35.40;15.63;;;;;;;-3.58;89.92;102642.53;5029908;28;20140;-58
2021/12/21 07:41:20;;;;;;;35.07;15.57;;;;;;;-3.57;90.36;102649.44;5032187;28;20085;-59
2021/12/21 07:43:45;;;;;;;34.27;15.73;;;;;;;-3.55;90.13;102652.88;5031214;28;20036;-58
2021/12/21 07:46:11;;;;;;;37.27;15.70;;;;;;;-3.55;90.09;102648.53;5032023;28;20029;-57
2021/12/21 07:48:37;;;;;;;37.33;15.23;;;;;;;-3.55;90.23;102650.28;5030589;28;20029;-58
2021/12/21 07:51:03;;;;;;;36.30;15.20;;;;;;;-3.53;90.17;102651.09;5032114;28;20029;-58
2021/12/21 07:53:28;;;;;;;37.90;15.03;;;;;;;-3.54;89.97;102652.00;5032106;28;20098;-62
2021/12/21 07:55:53;;;;;;;34.70;15.07;;;;;;;-3.52;90.06;102645.03;5032988;28;20482;-61
2021/12/21 07:58:19;;;;;;;33.53;15.50;;;;;;;-3.52;89.91;102658.00;5031757;28;20033;-62
2021/12/21 08:00:44;;;;;;;32.77;15.17;;;;;;;-3.55;89.74;102664.09;5031478;28;20189;-61
2021/12/21 08:03:14;;;;;;;37.20;15.90;;;;;;;-3.57;89.94;102660.66;5032002;28;20520;-62
2021/12/21 08:05:40;;;;;;;39.93;16.03;;;;;;;-3.55;90.19;102658.06;5030667;28;20752;-62
2021/12/21 08:08:12;;;;;;;34.33;15.63;;;;;;;-3.53;90.10;102666.66;5030742;28;20107;-62
2021/12/21 08:10:49;;;;;;;32.45;15.75;;;;;;;-3.51;90.11;102665.75;5030126;28;20053;-61
2021/12/21 08:13:14;;;;;;;38.57;16.00;;;;;;;-3.50;90.12;102666.63;5028152;28;20498;-61
2021/12/21 08:15:40;;;;;;;33.27;15.37;;;;;;;-3.44;89.99;102666.53;5029369;28;20045;-62
2021/12/21 08:18:05;;;;;;;34.23;15.90;;;;;;;-3.42;89.95;102664.75;5028978;28;20051;-61
2021/12/21 08:20:31;;;;;;;35.37;16.03;;;;;;;-3.40;89.77;102668.16;5030445;28;20367;-61
2021/12/21 08:22:57;;;;;;;35.83;16.40;;;;;;;-3.39;89.98;102664.69;5028503;28;20033;-62
2021/12/21 08:25:25;;;;;;;37.43;16.80;;;;;;;-3.40;90.19;102657.78;5030849;28;20025;-61
2021/12/21 08:27:51;;;;;;;36.83;15.93;;;;;;;-3.38;89.98;102666.44;5030085;28;20065;-61
2021/12/21 08:30:17;;;;;;;35.87;16.50;;;;;;;-3.34;90.13;102666.38;5029104;28;20033;-62
2021/12/21 08:32:42;;;;;;;36.57;16.67;;;;;;;-3.31;90.26;102655.94;5029096;28;20026;-62
2021/12/21 08:35:08;;;;;;;36.97;16.80;;;;;;;-3.27;90.18;102655.88;5026110;28;20039;-61
2021/12/21 08:37:34;;;;;;;33.97;15.50;;;;;;;-3.23;90.17;102654.06;5028257;28;20025;-61
2021/12/21 08:40:00;;;;;;;33.17;16.20;;;;;;;-3.22;90.48;102655.78;5025550;28;20052;-61
2021/12/21 08:42:26;;;;;;;37.37;16.47;;;;;;;-3.14;90.19;102663.44;5023515;28;20029;-62
2021/12/21 08:44:51;;;;;;;36.30;16.50;;;;;;;-3.12;90.29;102662.53;5027830;28;20105;-63
2021/12/21 08:47:17;;;;;;;39.53;17.50;;;;;;;-3.12;90.88;102662.53;5025129;28;20166;-62
2021/12/21 08:49:42;;;;;;;41.10;17.57;;;;;;;-3.06;90.65;102669.34;5025479;28;20056;-62
2021/12/21 08:52:08;;;;;;;38.13;17.87;;;;;;;-3.01;90.80;102666.69;5025073;28;20456;-62
2021/12/21 08:54:33;;;;;;;36.90;17.33;;;;;;;-2.96;91.50;102675.25;5029516;28;20033;-63
2021/12/21 08:56:58;;;;;;;36.40;17.17;;;;;;;-2.92;90.93;102671.69;5028641;28;20026;-63
2021/12/21 08:59:23;;;;;;;36.00;16.70;;;;;;;-2.89;91.16;102671.66;5028874;28;20029;-62
2021/12/21 09:01:51;;;;;;;37.63;17.10;;;;;;;-2.89;91.02;102662.97;5029731;28;20030;-62
2021/12/21 09:04:18;;;;;;;33.70;16.87;;;;;;;-2.85;91.44;102670.69;5029006;28;20103;-62
2021/12/21 09:06:44;;;;;;;34.60;17.17;;;;;;;-2.82;91.22;102668.94;5028982;28;20029;-62
2021/12/21 09:09:09;;;;;;;36.17;17.70;;;;;;;-2.82;91.33;102672.38;5030701;28;20155;-62
2021/12/21 09:11:35;;;;;;;35.27;17.17;;;;;;;-2.78;91.35;102675.75;5028836;28;20029;-62
2021/12/21 09:14:00;;;;;;;35.27;17.00;;;;;;;-2.76;91.89;102674.84;5029592;28;20029;-62
2021/12/21 09:16:26;;;;;;;36.93;19.03;;;;;;;-2.70;92.07;102684.28;5029340;28;20034;-62
2021/12/21 09:18:51;;;;;;;41.77;19.00;;;;;;;-2.70;91.58;102669.53;5026982;28;20748;-62
2021/12/21 09:21:16;;;;;;;39.00;19.73;;;;;;;-2.63;92.06;102669.41;5031173;28;20037;-62
2021/12/21 09:23:41;;;;;;;38.67;19.77;;;;;;;-2.58;91.65;102668.47;5031728;28;20083;-62
2021/12/21 09:26:07;;;;;;;41.70;20.53;;;;;;;-2.57;91.89;102674.50;5028960;28;20096;-62
2021/12/21 09:28:32;;;;;;;42.90;20.03;;;;;;;-2.57;91.86;102672.75;5023915;28;20326;-62
2021/12/21 09:30:58;;;;;;;39.87;20.17;;;;;;;-2.51;92.11;102668.34;5027033;28;20091;-62
2021/12/21 09:33:23;;;;;;;38.17;20.23;;;;;;;-2.47;92.36;102673.44;5023441;28;20029;-62
2021/12/21 09:35:49;;;;;;;41.30;20.17;;;;;;;-2.43;92.31;102669.03;5026960;28;20040;-62
2021/12/21 09:38:14;;;;;;;43.33;20.80;;;;;;;-2.39;92.29;102673.28;5021328;28;20034;-62
2021/12/21 09:40:40;;;;;;;41.10;21.20;;;;;;;-2.36;92.13;102665.41;5025319;28;20448;-62
2021/12/21 09:43:10;;;;;;;42.50;21.43;;;;;;;-2.32;92.15;102668.81;5022576;28;21336;-62
2021/12/21 09:45:37;;;;;;;39.73;21.77;;;;;;;-2.30;92.30;102670.50;5026116;28;20071;-62
2021/12/21 09:48:03;;;;;;;40.30;21.63;;;;;;;-2.27;92.11;102669.56;5028486;28;20029;-62
2021/12/21 09:50:29;;;;;;;40.60;22.23;;;;;;;-2.22;92.25;102666.88;5020523;28;20044;-62
2021/12/21 09:52:55;;;;;;;43.67;22.43;;;;;;;-2.18;92.43;102666.78;5022711;28;20612;-62
2021/12/21 09:55:21;;;;;;;40.73;21.53;;;;;;;-2.13;92.33;102668.44;5024269;28;20045;-62
2021/12/21 09:57:48;;;;;;;42.87;21.50;;;;;;;-2.11;92.29;102653.63;5024278;28;20505;-62
2021/12/21 10:00:18;;;;;;;40.47;21.50;;;;;;;-2.04;92.54;102658.69;5021804;28;20033;-62
2021/12/21 10:02:44;;;;;;;41.03;21.77;;;;;;;-1.99;92.27;102666.38;5025273;28;20041;-62
2021/12/21 10:05:13;;;;;;;42.40;21.57;;;;;;;-1.92;92.54;102661.91;5030491;28;20530;-62
2021/12/21 10:07:38;;;;;;;41.17;21.33;;;;;;;-1.89;91.84;102656.59;5029305;28;20053;-62
2021/12/21 10:10:06;;;;;;;39.50;20.40;;;;;;;-1.84;92.22;102646.97;5030206;28;20437;-62
2021/12/21 10:12:34;;;;;;;38.10;21.13;;;;;;;-1.80;92.22;102645.13;5030520;28;20468;-62
2021/12/21 10:15:12;;;;;;;38.73;20.37;;;;;;;-1.73;91.61;102653.66;5029555;28;20060;-62
2021/12/21 10:17:46;;;;;;;43.50;19.90;;;;;;;-1.71;92.12;102651.88;5030062;28;20120;-62
2021/12/21 10:20:13;;;;;;;43.90;20.00;;;;;;;-1.68;92.05;102654.41;5031011;28;20030;-62
2021/12/21 10:22:49;;;;;;;35.13;19.07;;;;;;;-1.64;91.85;102654.28;5031771;28;20025;-62
2021/12/21 10:25:14;;;;;;;38.50;19.70;;;;;;;-1.62;92.14;102652.50;5028576;28;20025;-62
2021/12/21 10:27:44;;;;;;;35.47;19.90;;;;;;;-1.57;92.00;102641.13;5026780;28;20033;-62
2021/12/21 10:30:10;;;;;;;35.17;19.23;;;;;;;-1.53;91.75;102643.63;5033280;28;20037;-63
2021/12/21 10:32:35;;;;;;;35.10;18.83;;;;;;;-1.49;91.88;102642.66;5030093;28;20386;-62
2021/12/21 10:35:03;;;;;;;40.00;20.30;;;;;;;-1.45;92.14;102634.75;5025882;28;20037;-62
2021/12/21 10:37:32;;;;;;;35.07;20.20;;;;;;;-1.44;92.31;102626.09;5025624;28;20071;-62
2021/12/21 10:40:37;;;;;;;37.83;19.33;;;;;;;-1.37;91.76;102627.63;5023920;28;20478;-62
2021/12/21 10:43:06;;;;;;;31.80;18.90;;;;;;;-1.37;91.95;102628.47;5024947;28;20041;-62
2021/12/21 10:45:34;;;;;;;38.90;19.00;;;;;;;-1.27;91.97;102634.31;5026497;28;20365;-64
2021/12/21 10:48:03;;;;;;;33.17;18.77;;;;;;;-1.25;91.64;102636.88;5031238;28;20381;-63
2021/12/21 10:50:32;;;;;;;35.27;18.73;;;;;;;-1.16;91.90;102631.44;5030995;28;20026;-64
2021/12/21 10:52:58;;;;;;;38.60;18.57;;;;;;;-1.08;91.76;102633.84;5030018;28;20537;-63
2021/12/21 10:55:27;;;;;;;34.10;18.17;;;;;;;-1.05;91.51;102628.53;5030649;28;20033;-63
2021/12/21 10:58:00;;;;;;;37.00;17.77;;;;;;;-0.99;91.53;102632.75;5031669;28;20033;-63
2021/12/21 11:00:26;;;;;;;31.93;17.30;;;;;;;-0.97;91.58;102623.13;5028940;28;20569;-63
2021/12/21 11:02:53;;;;;;;35.43;17.87;;;;;;;-0.97;92.07;102616.19;5029383;28;20116;-63
2021/12/21 11:05:20;;;;;;;30.27;15.73;;;;;;;-0.92;90.69;102623.84;5027298;28;20471;-63
2021/12/21 11:10:51;;;;;;;33.03;16.37;;;;;;;-0.85;91.24;102619.31;4984569;28;20125;-63
2021/12/21 11:13:16;;;;;;;30.27;15.82;;;;;;;-0.81;90.69;102620.94;5027406;28;20491;-63
2021/12/21 11:15:44;;;;;;;37.60;16.90;;;;;;;-0.80;90.94;102622.66;5022510;28;20084;-63
2021/12/21 11:18:16;;;;;;;31.10;16.70;;;;;;;-0.75;90.64;102620.78;5028313;28;20039;-63
2021/12/21 11:20:45;;;;;;;29.60;16.60;;;;;;;-0.73;90.68;102618.97;5023739;28;20021;-63
2021/12/21 11:23:14;;;;;;;31.73;16.50;;;;;;;-0.68;90.01;102621.47;5023964;28;20310;-63
2021/12/21 11:25:42;;;;;;;28.67;16.00;;;;;;;-0.65;90.29;102610.94;5025436;28;20095;-63
2021/12/21 11:28:12;;;;;;;29.57;16.03;;;;;;;-0.61;90.09;102606.47;5030060;28;20482;-63
2021/12/21 11:30:38;;;;;;;30.73;16.73;;;;;;;-0.57;90.40;102602.91;5031287;28;20041;-63
2021/12/21 11:33:07;;;;;;;29.83;15.53;;;;;;;-0.56;89.80;102599.41;5028398;28;20072;-63
2021/12/21 11:38:04;;;;;;;27.47;14.70;;;;;;;-0.48;89.77;102578.31;5027035;28;20025;-63
2021/12/21 11:40:33;;;;;;;29.03;15.23;;;;;;;-0.45;90.25;102566.03;5022859;28;20047;-63
2021/12/21 11:43:28;;;;;;;28.67;15.30;;;;;;;-0.40;90.35;102555.47;5023405;28;20104;-62
2021/12/21 11:46:15;;;;;;;29.43;14.53;;;;;;;-0.35;89.46;102566.63;5028855;28;20029;-62
2021/12/21 11:48:53;;;;;;;29.90;15.43;;;;;;;-0.33;89.56;102569.19;5037390;28;20672;-63
2021/12/21 11:51:27;;;;;;;28.60;15.43;;;;;;;-0.30;89.89;102569.94;5025352;28;20124;-62
2021/12/21 11:53:54;;;;;;;28.77;14.90;;;;;;;-0.20;89.19;102575.72;5024134;28;20087;-62
2021/12/21 11:56:24;;;;;;;26.50;13.97;;;;;;;-0.21;88.77;102568.78;5029374;28;20042;-62
2021/12/21 11:58:52;;;;;;;28.80;15.43;;;;;;;-0.15;89.52;102563.38;5024336;28;20121;-63
2021/12/21 12:01:23;;;;;;;25.03;13.20;;;;;;;-0.08;88.01;102563.19;5028898;28;20095;-62
2021/12/21 12:04:03;;;;;;;28.43;13.73;;;;;;;-0.04;88.83;102564.81;5029873;28;20021;-62
2021/12/21 12:06:43;;;;;;;29.20;13.73;;;;;;;-0.01;88.58;102559.47;5027456;28;20036;-64
2021/12/21 12:09:08;;;;;;;24.87;12.27;;;;;;;0.03;88.02;102555.88;5025723;28;20073;-61
2021/12/21 12:11:36;;;;;;;26.17;10.33;;;;;;;0.09;85.90;102560.91;5028368;28;20450;-64